sensor_id;sensor_type;location;lat;lon;timestamp;temperature;humidity
15394;DHT22;7795;47.986;11.868;2024-03-25T00:01:19;7.30;73.80
15394;DHT22;7795;47.986;11.868;2024-03-25T00:03:45;7.30;73.80
15394;DHT22;7795;47.986;11.868;2024-03-25T00:06:11;7.30;73.80
15394;DHT22;7795;47.986;11.868;2024-03-25T00:08:37;7.30;73.70
15394;DHT22;7795;47.986;11.868;2024-03-25T00:11:03;7.30;73.80
15394;DHT22;7795;47.986;11.868;2024-03-25T00:13:29;7.30;73.80
15394;DHT22;7795;47.986;11.868;2024-03-25T00:15:56;7.30;73.80
15394;DHT22;7795;47.986;11.868;2024-03-25T00:18:22;7.40;73.80
15394;DHT22;7795;47.986;11.868;2024-03-25T00:20:47;7.30;73.70
15394;DHT22;7795;47.986;11.868;2024-03-25T00:23:14;7.40;73.80
15394;DHT22;7795;47.986;11.868;2024-03-25T00:25:40;7.40;74.50
15394;DHT22;7795;47.986;11.868;2024-03-25T00:28:06;7.40;73.70
15394;DHT22;7795;47.986;11.868;2024-03-25T00:30:32;7.40;73.80
15394;DHT22;7795;47.986;11.868;2024-03-25T00:32:59;7.40;73.80
15394;DHT22;7795;47.986;11.868;2024-03-25T00:35:25;7.40;73.70
15394;DHT22;7795;47.986;11.868;2024-03-25T00:37:51;7.40;73.70
15394;DHT22;7795;47.986;11.868;2024-03-25T00:40:17;7.40;73.60
15394;DHT22;7795;47.986;11.868;2024-03-25T00:42:43;7.40;73.50
15394;DHT22;7795;47.986;11.868;2024-03-25T00:45:09;7.40;73.50
15394;DHT22;7795;47.986;11.868;2024-03-25T00:47:35;7.40;73.50
15394;DHT22;7795;47.986;11.868;2024-03-25T00:50:02;7.40;73.40
15394;DHT22;7795;47.986;11.868;2024-03-25T00:52:28;7.30;73.40
15394;DHT22;7795;47.986;11.868;2024-03-25T00:54:54;7.30;73.40
15394;DHT22;7795;47.986;11.868;2024-03-25T00:57:20;7.30;73.40
15394;DHT22;7795;47.986;11.868;2024-03-25T00:59:46;7.30;73.30
15394;DHT22;7795;47.986;11.868;2024-03-25T01:02:11;7.30;73.10
15394;DHT22;7795;47.986;11.868;2024-03-25T01:04:37;7.30;73.20
15394;DHT22;7795;47.986;11.868;2024-03-25T01:07:04;7.30;73.30
15394;DHT22;7795;47.986;11.868;2024-03-25T01:09:30;7.30;73.20
15394;DHT22;7795;47.986;11.868;2024-03-25T01:11:57;7.30;73.30
15394;DHT22;7795;47.986;11.868;2024-03-25T01:14:23;7.30;73.20
15394;DHT22;7795;47.986;11.868;2024-03-25T01:16:49;7.30;74.00
15394;DHT22;7795;47.986;11.868;2024-03-25T01:19:15;7.30;73.10
15394;DHT22;7795;47.986;11.868;2024-03-25T01:21:40;7.30;73.20
15394;DHT22;7795;47.986;11.868;2024-03-25T01:24:07;7.30;73.10
15394;DHT22;7795;47.986;11.868;2024-03-25T01:26:33;7.30;73.10
15394;DHT22;7795;47.986;11.868;2024-03-25T01:28:59;7.30;73.10
15394;DHT22;7795;47.986;11.868;2024-03-25T01:31:25;7.30;73.00
15394;DHT22;7795;47.986;11.868;2024-03-25T01:33:51;7.30;73.00
15394;DHT22;7795;47.986;11.868;2024-03-25T01:36:17;7.30;73.00
15394;DHT22;7795;47.986;11.868;2024-03-25T01:38:43;7.30;73.00
15394;DHT22;7795;47.986;11.868;2024-03-25T01:41:11;7.30;73.00
15394;DHT22;7795;47.986;11.868;2024-03-25T01:43:37;7.20;72.90
15394;DHT22;7795;47.986;11.868;2024-03-25T01:46:04;7.20;72.90
15394;DHT22;7795;47.986;11.868;2024-03-25T01:48:31;7.20;73.00
15394;DHT22;7795;47.986;11.868;2024-03-25T01:50:58;7.20;72.90
15394;DHT22;7795;47.986;11.868;2024-03-25T01:53:24;7.20;72.90
15394;DHT22;7795;47.986;11.868;2024-03-25T01:55:52;7.20;72.80
15394;DHT22;7795;47.986;11.868;2024-03-25T01:58:22;7.20;72.80
15394;DHT22;7795;47.986;11.868;2024-03-25T02:00:49;7.20;72.70
15394;DHT22;7795;47.986;11.868;2024-03-25T02:03:15;7.20;72.80
15394;DHT22;7795;47.986;11.868;2024-03-25T02:05:42;7.10;72.80
15394;DHT22;7795;47.986;11.868;2024-03-25T02:08:09;7.10;72.90
15394;DHT22;7795;47.986;11.868;2024-03-25T02:10:36;7.10;73.60
15394;DHT22;7795;47.986;11.868;2024-03-25T02:13:03;7.10;72.90
15394;DHT22;7795;47.986;11.868;2024-03-25T02:15:31;7.10;73.00
15394;DHT22;7795;47.986;11.868;2024-03-25T02:17:57;7.10;73.00
15394;DHT22;7795;47.986;11.868;2024-03-25T02:20:22;7.10;73.00
15394;DHT22;7795;47.986;11.868;2024-03-25T02:22:48;7.10;73.10
15394;DHT22;7795;47.986;11.868;2024-03-25T02:25:14;7.10;73.20
15394;DHT22;7795;47.986;11.868;2024-03-25T02:27:43;7.00;73.10
15394;DHT22;7795;47.986;11.868;2024-03-25T02:30:10;7.00;73.20
15394;DHT22;7795;47.986;11.868;2024-03-25T02:32:40;7.00;73.20
15394;DHT22;7795;47.986;11.868;2024-03-25T02:35:09;7.00;73.30
15394;DHT22;7795;47.986;11.868;2024-03-25T02:37:36;7.00;73.30
15394;DHT22;7795;47.986;11.868;2024-03-25T02:40:04;7.00;73.40
15394;DHT22;7795;47.986;11.868;2024-03-25T02:42:32;7.00;73.40
15394;DHT22;7795;47.986;11.868;2024-03-25T02:45:00;7.00;73.40
15394;DHT22;7795;47.986;11.868;2024-03-25T02:47:26;7.00;73.40
15394;DHT22;7795;47.986;11.868;2024-03-25T02:49:52;7.00;73.50
15394;DHT22;7795;47.986;11.868;2024-03-25T02:52:19;7.00;73.50
15394;DHT22;7795;47.986;11.868;2024-03-25T02:54:45;7.00;73.50
15394;DHT22;7795;47.986;11.868;2024-03-25T02:57:10;7.00;73.50
15394;DHT22;7795;47.986;11.868;2024-03-25T02:59:37;7.00;73.50
15394;DHT22;7795;47.986;11.868;2024-03-25T03:02:04;7.00;73.50
15394;DHT22;7795;47.986;11.868;2024-03-25T03:04:30;7.00;73.50
15394;DHT22;7795;47.986;11.868;2024-03-25T03:06:56;7.00;73.50
15394;DHT22;7795;47.986;11.868;2024-03-25T03:09:22;7.00;73.60
15394;DHT22;7795;47.986;11.868;2024-03-25T03:11:48;7.00;73.50
15394;DHT22;7795;47.986;11.868;2024-03-25T03:14:14;7.00;73.50
15394;DHT22;7795;47.986;11.868;2024-03-25T03:16:40;7.00;73.50
15394;DHT22;7795;47.986;11.868;2024-03-25T03:19:07;6.90;73.40
15394;DHT22;7795;47.986;11.868;2024-03-25T03:21:33;6.90;73.40
15394;DHT22;7795;47.986;11.868;2024-03-25T03:23:58;6.90;73.40
15394;DHT22;7795;47.986;11.868;2024-03-25T03:26:24;6.90;73.30
15394;DHT22;7795;47.986;11.868;2024-03-25T03:28:53;6.90;73.40
15394;DHT22;7795;47.986;11.868;2024-03-25T03:31:19;6.90;73.40
15394;DHT22;7795;47.986;11.868;2024-03-25T03:33:47;6.90;73.50
15394;DHT22;7795;47.986;11.868;2024-03-25T03:36:15;6.90;73.50
15394;DHT22;7795;47.986;11.868;2024-03-25T03:38:40;6.90;73.50
15394;DHT22;7795;47.986;11.868;2024-03-25T03:41:06;6.90;73.40
15394;DHT22;7795;47.986;11.868;2024-03-25T03:43:32;6.90;73.40
15394;DHT22;7795;47.986;11.868;2024-03-25T03:45:58;6.90;73.40
15394;DHT22;7795;47.986;11.868;2024-03-25T03:48:24;6.90;73.40
15394;DHT22;7795;47.986;11.868;2024-03-25T03:50:50;7.00;73.40
15394;DHT22;7795;47.986;11.868;2024-03-25T03:53:17;7.00;73.30
15394;DHT22;7795;47.986;11.868;2024-03-25T03:55:43;7.00;73.20
15394;DHT22;7795;47.986;11.868;2024-03-25T03:58:18;7.00;73.20
15394;DHT22;7795;47.986;11.868;2024-03-25T04:00:43;7.00;73.20
15394;DHT22;7795;47.986;11.868;2024-03-25T04:03:09;6.90;73.10
15394;DHT22;7795;47.986;11.868;2024-03-25T04:05:35;6.90;73.00
15394;DHT22;7795;47.986;11.868;2024-03-25T04:08:01;6.90;73.00
15394;DHT22;7795;47.986;11.868;2024-03-25T04:10:28;6.90;73.00
15394;DHT22;7795;47.986;11.868;2024-03-25T04:12:54;6.90;72.90
15394;DHT22;7795;47.986;11.868;2024-03-25T04:15:21;6.90;72.90
15394;DHT22;7795;47.986;11.868;2024-03-25T04:17:47;6.90;72.90
15394;DHT22;7795;47.986;11.868;2024-03-25T04:20:15;6.90;72.90
15394;DHT22;7795;47.986;11.868;2024-03-25T04:22:41;6.80;72.80
15394;DHT22;7795;47.986;11.868;2024-03-25T04:25:08;6.80;72.80
15394;DHT22;7795;47.986;11.868;2024-03-25T04:27:35;6.80;72.90
15394;DHT22;7795;47.986;11.868;2024-03-25T04:30:01;6.80;72.90
15394;DHT22;7795;47.986;11.868;2024-03-25T04:32:27;6.80;72.90
15394;DHT22;7795;47.986;11.868;2024-03-25T04:34:52;6.70;72.80
15394;DHT22;7795;47.986;11.868;2024-03-25T04:37:18;6.70;72.80
15394;DHT22;7795;47.986;11.868;2024-03-25T04:39:44;6.70;72.90
15394;DHT22;7795;47.986;11.868;2024-03-25T04:42:11;6.70;72.90
15394;DHT22;7795;47.986;11.868;2024-03-25T04:44:38;6.70;72.90
15394;DHT22;7795;47.986;11.868;2024-03-25T04:47:04;6.70;72.80
15394;DHT22;7795;47.986;11.868;2024-03-25T04:49:30;6.70;72.90
15394;DHT22;7795;47.986;11.868;2024-03-25T04:51:56;6.60;72.80
15394;DHT22;7795;47.986;11.868;2024-03-25T04:54:22;6.60;72.80
15394;DHT22;7795;47.986;11.868;2024-03-25T04:56:48;6.60;72.90
15394;DHT22;7795;47.986;11.868;2024-03-25T04:59:14;6.60;73.00
15394;DHT22;7795;47.986;11.868;2024-03-25T05:01:41;6.60;73.00
15394;DHT22;7795;47.986;11.868;2024-03-25T05:04:06;6.60;73.70
15394;DHT22;7795;47.986;11.868;2024-03-25T05:06:34;6.60;73.00
15394;DHT22;7795;47.986;11.868;2024-03-25T05:09:00;6.60;73.00
15394;DHT22;7795;47.986;11.868;2024-03-25T05:11:26;6.60;72.90
15394;DHT22;7795;47.986;11.868;2024-03-25T05:13:52;6.60;73.00
15394;DHT22;7795;47.986;11.868;2024-03-25T05:16:18;6.60;73.00
15394;DHT22;7795;47.986;11.868;2024-03-25T05:18:45;6.60;73.00
15394;DHT22;7795;47.986;11.868;2024-03-25T05:21:11;6.50;73.80
15394;DHT22;7795;47.986;11.868;2024-03-25T05:23:36;6.60;73.10
15394;DHT22;7795;47.986;11.868;2024-03-25T05:26:02;6.50;73.80
15394;DHT22;7795;47.986;11.868;2024-03-25T05:28:28;6.60;73.10
15394;DHT22;7795;47.986;11.868;2024-03-25T05:30:54;6.50;73.10
15394;DHT22;7795;47.986;11.868;2024-03-25T05:33:20;6.50;73.10
15394;DHT22;7795;47.986;11.868;2024-03-25T05:35:47;6.60;73.20
15394;DHT22;7795;47.986;11.868;2024-03-25T05:38:13;6.60;73.20
15394;DHT22;7795;47.986;11.868;2024-03-25T05:40:38;6.60;73.10
15394;DHT22;7795;47.986;11.868;2024-03-25T05:43:04;6.60;73.40
15394;DHT22;7795;47.986;11.868;2024-03-25T05:45:30;6.60;73.10
15394;DHT22;7795;47.986;11.868;2024-03-25T05:47:56;6.60;73.10
15394;DHT22;7795;47.986;11.868;2024-03-25T05:50:22;6.60;73.10
15394;DHT22;7795;47.986;11.868;2024-03-25T05:52:49;6.60;73.10
15394;DHT22;7795;47.986;11.868;2024-03-25T05:55:15;6.60;73.00
15394;DHT22;7795;47.986;11.868;2024-03-25T05:57:42;6.60;73.00
15394;DHT22;7795;47.986;11.868;2024-03-25T06:00:10;6.60;73.10
15394;DHT22;7795;47.986;11.868;2024-03-25T06:02:37;6.60;73.20
15394;DHT22;7795;47.986;11.868;2024-03-25T06:05:03;6.70;73.20
15394;DHT22;7795;47.986;11.868;2024-03-25T06:07:30;6.60;73.20
15394;DHT22;7795;47.986;11.868;2024-03-25T06:09:57;6.70;73.30
15394;DHT22;7795;47.986;11.868;2024-03-25T06:12:23;6.70;73.30
15394;DHT22;7795;47.986;11.868;2024-03-25T06:14:49;6.70;73.30
15394;DHT22;7795;47.986;11.868;2024-03-25T06:17:15;6.80;73.40
15394;DHT22;7795;47.986;11.868;2024-03-25T06:19:40;6.90;73.40
15394;DHT22;7795;47.986;11.868;2024-03-25T06:22:06;6.90;73.40
15394;DHT22;7795;47.986;11.868;2024-03-25T06:24:32;7.00;73.50
15394;DHT22;7795;47.986;11.868;2024-03-25T06:27:00;7.10;73.40
15394;DHT22;7795;47.986;11.868;2024-03-25T06:29:25;7.10;73.40
15394;DHT22;7795;47.986;11.868;2024-03-25T06:31:51;7.20;73.40
15394;DHT22;7795;47.986;11.868;2024-03-25T06:34:35;7.30;73.50
15394;DHT22;7795;47.986;11.868;2024-03-25T06:37:01;7.40;73.80
15394;DHT22;7795;47.986;11.868;2024-03-25T06:39:27;7.60;74.00
15394;DHT22;7795;47.986;11.868;2024-03-25T06:41:53;7.80;73.60
15394;DHT22;7795;47.986;11.868;2024-03-25T06:44:20;8.00;73.70
15394;DHT22;7795;47.986;11.868;2024-03-25T06:46:45;8.30;74.00
15394;DHT22;7795;47.986;11.868;2024-03-25T06:49:11;8.60;74.10
15394;DHT22;7795;47.986;11.868;2024-03-25T06:51:37;9.00;74.00
15394;DHT22;7795;47.986;11.868;2024-03-25T06:54:03;9.40;73.80
15394;DHT22;7795;47.986;11.868;2024-03-25T06:56:29;9.90;73.40
15394;DHT22;7795;47.986;11.868;2024-03-25T06:58:54;10.30;72.80
15394;DHT22;7795;47.986;11.868;2024-03-25T07:01:22;10.60;72.00
15394;DHT22;7795;47.986;11.868;2024-03-25T07:03:48;11.00;71.20
15394;DHT22;7795;47.986;11.868;2024-03-25T07:06:14;11.30;70.40
15394;DHT22;7795;47.986;11.868;2024-03-25T07:08:40;11.40;69.40
15394;DHT22;7795;47.986;11.868;2024-03-25T07:11:06;11.50;68.50
15394;DHT22;7795;47.986;11.868;2024-03-25T07:13:32;11.50;67.50
15394;DHT22;7795;47.986;11.868;2024-03-25T07:15:58;11.40;66.80
15394;DHT22;7795;47.986;11.868;2024-03-25T07:18:25;11.30;66.40
15394;DHT22;7795;47.986;11.868;2024-03-25T07:20:51;11.10;66.10
15394;DHT22;7795;47.986;11.868;2024-03-25T07:23:16;11.00;66.20
15394;DHT22;7795;47.986;11.868;2024-03-25T07:25:42;10.80;66.00
15394;DHT22;7795;47.986;11.868;2024-03-25T07:28:08;10.60;66.80
15394;DHT22;7795;47.986;11.868;2024-03-25T07:30:34;10.50;66.30
15394;DHT22;7795;47.986;11.868;2024-03-25T07:33:00;10.30;66.20
15394;DHT22;7795;47.986;11.868;2024-03-25T07:35:27;10.20;66.50
15394;DHT22;7795;47.986;11.868;2024-03-25T07:37:53;10.10;66.60
15394;DHT22;7795;47.986;11.868;2024-03-25T07:40:19;10.00;66.80
15394;DHT22;7795;47.986;11.868;2024-03-25T07:42:45;9.90;67.10
15394;DHT22;7795;47.986;11.868;2024-03-25T07:45:11;9.80;67.80
15394;DHT22;7795;47.986;11.868;2024-03-25T07:47:37;9.80;67.10
15394;DHT22;7795;47.986;11.868;2024-03-25T07:50:04;9.80;67.00
15394;DHT22;7795;47.986;11.868;2024-03-25T07:52:32;9.70;66.60
15394;DHT22;7795;47.986;11.868;2024-03-25T07:54:59;9.70;66.60
15394;DHT22;7795;47.986;11.868;2024-03-25T07:57:25;9.70;66.60
15394;DHT22;7795;47.986;11.868;2024-03-25T07:59:51;9.70;66.80
15394;DHT22;7795;47.986;11.868;2024-03-25T08:02:17;9.70;66.80
15394;DHT22;7795;47.986;11.868;2024-03-25T08:04:42;9.70;66.40
15394;DHT22;7795;47.986;11.868;2024-03-25T08:07:08;9.70;66.20
15394;DHT22;7795;47.986;11.868;2024-03-25T08:09:36;9.70;67.10
15394;DHT22;7795;47.986;11.868;2024-03-25T08:12:01;9.70;66.40
15394;DHT22;7795;47.986;11.868;2024-03-25T08:14:27;9.70;66.40
15394;DHT22;7795;47.986;11.868;2024-03-25T08:16:53;9.80;66.10
15394;DHT22;7795;47.986;11.868;2024-03-25T08:19:19;9.80;66.00
15394;DHT22;7795;47.986;11.868;2024-03-25T08:21:45;9.80;65.90
15394;DHT22;7795;47.986;11.868;2024-03-25T08:24:13;9.80;65.70
15394;DHT22;7795;47.986;11.868;2024-03-25T08:26:40;9.90;65.80
15394;DHT22;7795;47.986;11.868;2024-03-25T08:29:06;9.90;65.30
15394;DHT22;7795;47.986;11.868;2024-03-25T08:31:32;9.90;65.30
15394;DHT22;7795;47.986;11.868;2024-03-25T08:33:58;10.00;65.40
15394;DHT22;7795;47.986;11.868;2024-03-25T08:36:24;10.00;65.30
15394;DHT22;7795;47.986;11.868;2024-03-25T08:38:50;10.00;64.90
15394;DHT22;7795;47.986;11.868;2024-03-25T08:41:16;10.10;64.50
15394;DHT22;7795;47.986;11.868;2024-03-25T08:43:43;10.10;64.60
15394;DHT22;7795;47.986;11.868;2024-03-25T08:46:09;10.20;64.80
15394;DHT22;7795;47.986;11.868;2024-03-25T08:48:35;10.20;64.60
15394;DHT22;7795;47.986;11.868;2024-03-25T08:51:01;10.20;64.30
15394;DHT22;7795;47.986;11.868;2024-03-25T08:53:26;10.30;64.20
15394;DHT22;7795;47.986;11.868;2024-03-25T08:55:52;10.40;64.00
15394;DHT22;7795;47.986;11.868;2024-03-25T08:58:18;10.40;63.60
15394;DHT22;7795;47.986;11.868;2024-03-25T09:00:45;10.50;63.40
15394;DHT22;7795;47.986;11.868;2024-03-25T09:03:11;10.50;62.90
15394;DHT22;7795;47.986;11.868;2024-03-25T09:05:37;10.50;62.90
15394;DHT22;7795;47.986;11.868;2024-03-25T09:08:06;10.50;62.20
15394;DHT22;7795;47.986;11.868;2024-03-25T09:10:32;10.60;62.30
15394;DHT22;7795;47.986;11.868;2024-03-25T09:13:16;10.60;62.60
15394;DHT22;7795;47.986;11.868;2024-03-25T09:15:42;10.60;62.60
15394;DHT22;7795;47.986;11.868;2024-03-25T09:18:10;10.70;62.30
15394;DHT22;7795;47.986;11.868;2024-03-25T09:20:36;10.70;62.10
15394;DHT22;7795;47.986;11.868;2024-03-25T09:23:02;10.80;62.00
15394;DHT22;7795;47.986;11.868;2024-03-25T09:25:27;10.80;61.30
15394;DHT22;7795;47.986;11.868;2024-03-25T09:27:53;10.90;61.50
15394;DHT22;7795;47.986;11.868;2024-03-25T09:30:19;10.90;60.90
15394;DHT22;7795;47.986;11.868;2024-03-25T09:32:45;11.00;60.30
15394;DHT22;7795;47.986;11.868;2024-03-25T09:35:13;11.00;60.00
15394;DHT22;7795;47.986;11.868;2024-03-25T09:37:39;11.10;60.00
15394;DHT22;7795;47.986;11.868;2024-03-25T09:40:05;11.10;59.90
15394;DHT22;7795;47.986;11.868;2024-03-25T09:42:34;11.10;59.80
15394;DHT22;7795;47.986;11.868;2024-03-25T09:45:00;11.20;59.60
15394;DHT22;7795;47.986;11.868;2024-03-25T09:47:26;11.20;59.70
15394;DHT22;7795;47.986;11.868;2024-03-25T09:49:54;11.30;59.40
15394;DHT22;7795;47.986;11.868;2024-03-25T09:52:21;11.30;58.60
15394;DHT22;7795;47.986;11.868;2024-03-25T09:54:47;11.40;58.90
15394;DHT22;7795;47.986;11.868;2024-03-25T09:57:14;11.40;58.50
15394;DHT22;7795;47.986;11.868;2024-03-25T09:59:40;11.50;58.70
15394;DHT22;7795;47.986;11.868;2024-03-25T10:02:08;11.50;58.80
15394;DHT22;7795;47.986;11.868;2024-03-25T10:04:42;11.50;58.60
15394;DHT22;7795;47.986;11.868;2024-03-25T10:07:10;11.60;58.50
15394;DHT22;7795;47.986;11.868;2024-03-25T10:09:38;11.70;58.90
15394;DHT22;7795;47.986;11.868;2024-03-25T10:12:04;11.70;58.60
15394;DHT22;7795;47.986;11.868;2024-03-25T10:14:30;11.80;58.70
15394;DHT22;7795;47.986;11.868;2024-03-25T10:16:56;11.80;58.40
15394;DHT22;7795;47.986;11.868;2024-03-25T10:19:21;11.90;58.30
15394;DHT22;7795;47.986;11.868;2024-03-25T10:21:48;11.90;58.00
15394;DHT22;7795;47.986;11.868;2024-03-25T10:24:16;12.00;57.70
15394;DHT22;7795;47.986;11.868;2024-03-25T10:26:44;12.10;57.20
15394;DHT22;7795;47.986;11.868;2024-03-25T10:29:10;12.10;57.40
15394;DHT22;7795;47.986;11.868;2024-03-25T10:31:36;12.20;57.50
15394;DHT22;7795;47.986;11.868;2024-03-25T10:34:02;12.30;57.40
15394;DHT22;7795;47.986;11.868;2024-03-25T10:36:28;12.30;57.30
15394;DHT22;7795;47.986;11.868;2024-03-25T10:38:57;12.30;56.80
15394;DHT22;7795;47.986;11.868;2024-03-25T10:41:27;12.40;56.80
15394;DHT22;7795;47.986;11.868;2024-03-25T10:43:55;12.40;56.60
15394;DHT22;7795;47.986;11.868;2024-03-25T10:46:22;12.40;56.10
15394;DHT22;7795;47.986;11.868;2024-03-25T10:48:54;12.50;56.40
15394;DHT22;7795;47.986;11.868;2024-03-25T10:51:23;12.50;56.00
15394;DHT22;7795;47.986;11.868;2024-03-25T10:53:51;12.50;56.40
15394;DHT22;7795;47.986;11.868;2024-03-25T10:56:20;12.50;56.10
15394;DHT22;7795;47.986;11.868;2024-03-25T10:58:48;12.60;55.80
15394;DHT22;7795;47.986;11.868;2024-03-25T11:01:17;12.60;55.60
15394;DHT22;7795;47.986;11.868;2024-03-25T11:03:43;12.60;55.20
15394;DHT22;7795;47.986;11.868;2024-03-25T11:06:10;12.70;55.60
15394;DHT22;7795;47.986;11.868;2024-03-25T11:08:36;12.70;55.70
15394;DHT22;7795;47.986;11.868;2024-03-25T11:11:05;12.80;55.90
15394;DHT22;7795;47.986;11.868;2024-03-25T11:13:31;12.80;55.60
15394;DHT22;7795;47.986;11.868;2024-03-25T11:15:58;12.90;55.50
15394;DHT22;7795;47.986;11.868;2024-03-25T11:18:26;13.00;55.10
15394;DHT22;7795;47.986;11.868;2024-03-25T11:21:00;13.00;54.80
15394;DHT22;7795;47.986;11.868;2024-03-25T11:23:26;13.10;53.50
15394;DHT22;7795;47.986;11.868;2024-03-25T11:25:55;13.10;54.50
15394;DHT22;7795;47.986;11.868;2024-03-25T11:28:29;13.10;53.50
15394;DHT22;7795;47.986;11.868;2024-03-25T11:30:55;13.20;54.10
15394;DHT22;7795;47.986;11.868;2024-03-25T11:33:21;13.20;53.80
15394;DHT22;7795;47.986;11.868;2024-03-25T11:35:49;13.20;53.90
15394;DHT22;7795;47.986;11.868;2024-03-25T11:38:15;13.30;53.60
15394;DHT22;7795;47.986;11.868;2024-03-25T11:40:50;13.30;53.80
15394;DHT22;7795;47.986;11.868;2024-03-25T11:43:19;13.30;53.60
15394;DHT22;7795;47.986;11.868;2024-03-25T11:45:47;13.30;53.10
15394;DHT22;7795;47.986;11.868;2024-03-25T11:48:14;13.40;53.50
15394;DHT22;7795;47.986;11.868;2024-03-25T11:50:40;13.40;53.40
15394;DHT22;7795;47.986;11.868;2024-03-25T11:53:07;13.40;53.30
15394;DHT22;7795;47.986;11.868;2024-03-25T11:55:33;13.40;52.90
15394;DHT22;7795;47.986;11.868;2024-03-25T11:57:59;13.40;52.80
15394;DHT22;7795;47.986;11.868;2024-03-25T12:00:25;13.40;52.90
15394;DHT22;7795;47.986;11.868;2024-03-25T12:02:51;13.40;53.00
15394;DHT22;7795;47.986;11.868;2024-03-25T12:05:18;13.40;52.40
15394;DHT22;7795;47.986;11.868;2024-03-25T12:07:44;13.40;52.20
15394;DHT22;7795;47.986;11.868;2024-03-25T12:10:11;13.30;52.70
15394;DHT22;7795;47.986;11.868;2024-03-25T12:12:56;13.30;52.40
15394;DHT22;7795;47.986;11.868;2024-03-25T12:15:22;13.30;52.60
15394;DHT22;7795;47.986;11.868;2024-03-25T12:17:48;13.30;52.80
15394;DHT22;7795;47.986;11.868;2024-03-25T12:20:16;13.30;52.80
15394;DHT22;7795;47.986;11.868;2024-03-25T12:22:43;13.30;52.80
15394;DHT22;7795;47.986;11.868;2024-03-25T12:25:10;13.30;52.50
15394;DHT22;7795;47.986;11.868;2024-03-25T12:27:38;13.30;52.30
15394;DHT22;7795;47.986;11.868;2024-03-25T12:30:05;13.30;52.20
15394;DHT22;7795;47.986;11.868;2024-03-25T12:32:38;13.30;52.10
15394;DHT22;7795;47.986;11.868;2024-03-25T12:35:09;13.40;50.80
15394;DHT22;7795;47.986;11.868;2024-03-25T12:37:36;13.30;51.30
15394;DHT22;7795;47.986;11.868;2024-03-25T12:40:03;13.30;51.70
15394;DHT22;7795;47.986;11.868;2024-03-25T12:42:32;13.30;52.10
15394;DHT22;7795;47.986;11.868;2024-03-25T12:44:58;13.40;52.30
15394;DHT22;7795;47.986;11.868;2024-03-25T12:47:24;13.40;52.30
15394;DHT22;7795;47.986;11.868;2024-03-25T12:49:50;13.40;52.00
15394;DHT22;7795;47.986;11.868;2024-03-25T12:52:16;13.50;52.00
15394;DHT22;7795;47.986;11.868;2024-03-25T12:54:42;13.60;51.80
15394;DHT22;7795;47.986;11.868;2024-03-25T12:57:08;13.60;51.80
15394;DHT22;7795;47.986;11.868;2024-03-25T12:59:35;13.60;52.40
15394;DHT22;7795;47.986;11.868;2024-03-25T13:02:01;13.70;51.60
15394;DHT22;7795;47.986;11.868;2024-03-25T13:04:28;13.80;51.80
15394;DHT22;7795;47.986;11.868;2024-03-25T13:06:54;13.80;51.50
15394;DHT22;7795;47.986;11.868;2024-03-25T13:09:20;13.90;51.30
15394;DHT22;7795;47.986;11.868;2024-03-25T13:11:46;13.90;51.30
15394;DHT22;7795;47.986;11.868;2024-03-25T13:14:12;13.90;51.20
15394;DHT22;7795;47.986;11.868;2024-03-25T13:16:40;14.00;51.00
15394;DHT22;7795;47.986;11.868;2024-03-25T13:19:06;14.00;50.70
15394;DHT22;7795;47.986;11.868;2024-03-25T13:21:32;14.00;50.70
15394;DHT22;7795;47.986;11.868;2024-03-25T13:23:58;14.10;50.70
15394;DHT22;7795;47.986;11.868;2024-03-25T13:26:24;14.10;50.50
15394;DHT22;7795;47.986;11.868;2024-03-25T13:28:51;14.10;50.30
15394;DHT22;7795;47.986;11.868;2024-03-25T13:31:17;14.10;50.10
15394;DHT22;7795;47.986;11.868;2024-03-25T13:33:44;14.10;50.40
15394;DHT22;7795;47.986;11.868;2024-03-25T13:36:10;14.10;50.00
15394;DHT22;7795;47.986;11.868;2024-03-25T13:38:36;14.10;50.10
15394;DHT22;7795;47.986;11.868;2024-03-25T13:41:02;14.10;50.30
15394;DHT22;7795;47.986;11.868;2024-03-25T13:43:28;14.10;50.10
15394;DHT22;7795;47.986;11.868;2024-03-25T13:45:54;14.20;50.20
15394;DHT22;7795;47.986;11.868;2024-03-25T13:48:20;14.20;50.10
15394;DHT22;7795;47.986;11.868;2024-03-25T13:50:47;14.20;49.90
15394;DHT22;7795;47.986;11.868;2024-03-25T13:53:14;14.20;49.70
15394;DHT22;7795;47.986;11.868;2024-03-25T13:55:40;14.20;49.70
15394;DHT22;7795;47.986;11.868;2024-03-25T13:58:05;14.10;50.00
15394;DHT22;7795;47.986;11.868;2024-03-25T14:00:33;14.20;50.00
15394;DHT22;7795;47.986;11.868;2024-03-25T14:03:00;14.20;49.80
15394;DHT22;7795;47.986;11.868;2024-03-25T14:05:26;14.20;49.80
15394;DHT22;7795;47.986;11.868;2024-03-25T14:07:54;14.20;49.80
15394;DHT22;7795;47.986;11.868;2024-03-25T14:10:19;14.30;49.30
15394;DHT22;7795;47.986;11.868;2024-03-25T14:12:45;14.30;49.50
15394;DHT22;7795;47.986;11.868;2024-03-25T14:15:11;14.30;49.50
15394;DHT22;7795;47.986;11.868;2024-03-25T14:17:37;14.30;49.50
15394;DHT22;7795;47.986;11.868;2024-03-25T14:20:03;14.30;49.50
15394;DHT22;7795;47.986;11.868;2024-03-25T14:22:32;14.30;49.20
15394;DHT22;7795;47.986;11.868;2024-03-25T14:24:59;14.30;49.20
15394;DHT22;7795;47.986;11.868;2024-03-25T14:27:26;14.30;49.20
15394;DHT22;7795;47.986;11.868;2024-03-25T14:29:52;14.30;49.20
15394;DHT22;7795;47.986;11.868;2024-03-25T14:32:19;14.30;49.20
15394;DHT22;7795;47.986;11.868;2024-03-25T14:34:45;14.30;49.10
15394;DHT22;7795;47.986;11.868;2024-03-25T14:37:11;14.30;49.10
15394;DHT22;7795;47.986;11.868;2024-03-25T14:39:37;14.40;49.30
15394;DHT22;7795;47.986;11.868;2024-03-25T14:42:04;14.40;49.10
15394;DHT22;7795;47.986;11.868;2024-03-25T14:44:30;14.40;48.90
15394;DHT22;7795;47.986;11.868;2024-03-25T14:46:56;14.50;49.20
15394;DHT22;7795;47.986;11.868;2024-03-25T14:49:25;14.50;49.20
15394;DHT22;7795;47.986;11.868;2024-03-25T14:51:51;14.50;49.20
15394;DHT22;7795;47.986;11.868;2024-03-25T14:54:17;14.50;49.30
15394;DHT22;7795;47.986;11.868;2024-03-25T14:56:43;14.60;49.90
15394;DHT22;7795;47.986;11.868;2024-03-25T14:59:10;14.60;49.20
15394;DHT22;7795;47.986;11.868;2024-03-25T15:01:36;14.60;48.80
15394;DHT22;7795;47.986;11.868;2024-03-25T15:04:03;14.60;49.20
15394;DHT22;7795;47.986;11.868;2024-03-25T15:06:29;14.60;49.20
15394;DHT22;7795;47.986;11.868;2024-03-25T15:08:56;14.60;49.10
15394;DHT22;7795;47.986;11.868;2024-03-25T15:11:22;14.60;49.10
15394;DHT22;7795;47.986;11.868;2024-03-25T15:13:48;14.60;49.50
15394;DHT22;7795;47.986;11.868;2024-03-25T15:16:15;14.60;48.70
15394;DHT22;7795;47.986;11.868;2024-03-25T15:18:41;14.50;48.60
15394;DHT22;7795;47.986;11.868;2024-03-25T15:21:06;14.50;48.70
15394;DHT22;7795;47.986;11.868;2024-03-25T15:23:32;14.50;48.60
15394;DHT22;7795;47.986;11.868;2024-03-25T15:25:58;14.40;48.60
15394;DHT22;7795;47.986;11.868;2024-03-25T15:28:24;14.40;48.80
15394;DHT22;7795;47.986;11.868;2024-03-25T15:30:50;14.40;48.70
15394;DHT22;7795;47.986;11.868;2024-03-25T15:33:18;14.30;48.50